North River — WYR2549 — position and weather

sailwx.info

Track history (hours):
 
Tides and Currents Weather Stations Pressure Air Temp Water Temp Dewpoint Dewpoint Depression Visibility Wind Speed Wind Dir Waves Ship Positions

North River

Owner: CITY OF NEW YORK, Brooklyn, NY. More information available from US FCC via Universal Licensing System and Coast Guard Vessel Documentation Center.

Last reported at 2015-Sep-02 23:33 UTC. Time now 2015-Sep-05 07:54 UTC.
Position N 40°47' W 073°53'.

Length 78 m.

Type: Tanker. MMSI: 367074110.

Date/timePositionNaut miles runAvg speedWind from/ knotsBaromVisibWave heightAir tempDewpointWater temp
2015-Sep-02 23:33N 40°47' W 073°53'1 1.0
2015-Sep-02 22:30N 40°48' W 073°53'2 2.0
2015-Sep-02 21:29N 40°47' W 073°55'6 6.6
2015-Sep-02 20:33N 40°43' W 074°02'7 7.2
2015-Sep-02 19:33N 40°50' W 073°58'0 0.0
2015-Sep-02 18:33N 40°50' W 073°58'0 0.3
2015-Sep-02 17:33N 40°50' W 073°58'6 6.1
2015-Sep-02 16:33N 40°44' W 073°58'6 5.8
2015-Sep-02 15:33N 40°48' W 073°53'0 0.0
2015-Sep-02 14:33N 40°48' W 073°53'2 2.1
2015-Sep-02 13:33N 40°48' W 073°50'0 0.0
2015-Sep-02 12:33N 40°48' W 073°50'3 2.7
2015-Sep-02 11:33N 40°47' W 073°54'1 0.1
2015-Sep-01 22:34N 40°48' W 073°55'1111.5
2015-Sep-01 21:33N 40°38' W 074°03'8 7.9
2015-Sep-01 20:34N 40°36' W 073°53'0 0.1
2015-Sep-01 17:34N 40°36' W 073°53'2 2.2
2015-Sep-01 16:33N 40°35' W 073°50'0 0.0
2015-Sep-01 15:33N 40°35' W 073°50'5 4.2
2015-Sep-01 14:28N 40°34' W 073°56'7 7.8
2015-Sep-01 13:33N 40°39' W 074°02'10 9.6
2015-Sep-01 12:33N 40°47' W 073°55'1 1.3
2015-Sep-01 11:33N 40°47' W 073°54'1 0.1
2015-Aug-31 22:27N 40°47' W 073°55'0 0.0
2015-Aug-31 21:27N 40°47' W 073°55'2 2.5
2015-Aug-31 20:33N 40°46' W 073°57'8 7.9
2015-Aug-31 19:33N 40°39' W 074°02'0 0.0
2015-Aug-31 18:33N 40°39' W 074°02'0 0.0
2015-Aug-31 17:33N 40°39' W 074°02'1010.2
2015-Aug-31 16:33N 40°47' W 073°55'2 1.6
2015-Aug-31 15:33N 40°48' W 073°53'0 0.0
2015-Aug-31 14:33N 40°48' W 073°53'2 1.5
2015-Aug-31 13:10N 40°48' W 073°50'0 0.0
2015-Aug-31 12:32N 40°48' W 073°50'3 2.7
2015-Aug-31 11:33N 40°47' W 073°54'  
2015-Aug-27 20:16N 40°47' W 073°53'6 8.9
2015-Aug-27 19:34N 40°42' W 073°59'6 6.1
2015-Aug-27 18:34N 40°42' W 074°07'1 0.7
2015-Aug-27 17:34N 40°43' W 074°07'0 0.0
2015-Aug-27 16:33N 40°43' W 074°07'4 4.3
2015-Aug-27 15:34N 40°39' W 074°09'5 5.1
2015-Aug-27 14:34N 40°39' W 074°02'0 0.0
2015-Aug-27 13:34N 40°39' W 074°02'2 2.4
2015-Aug-27 12:34N 40°41' W 074°01'8 8.4
2015-Aug-27 11:33N 40°47' W 073°54'0 0.0
2015-Aug-27 01:03N 40°47' W 073°54'1 3.0
2015-Aug-27 00:34N 40°47' W 073°55'1211.5
2015-Aug-26 23:34N 40°39' W 074°06'1 1.0
2015-Aug-26 22:33N 40°38' W 074°08'0 0.0
2015-Aug-26 21:33N 40°38' W 074°08'7 7.4
2015-Aug-26 20:33N 40°44' W 074°01'2 0.5
2015-Aug-26 16:33N 40°46' W 074°01'2 0.1
2015-Aug-25 20:33N 40°44' W 073°58'6 6.4
2015-Aug-25 19:33N 40°39' W 074°02'0 0.0
2015-Aug-25 18:33N 40°39' W 074°02'4 4.2
2015-Aug-25 17:34N 40°38' W 074°08'0 0.0
2015-Aug-25 16:33N 40°38' W 074°08'0 0.0
2015-Aug-25 15:33N 40°38' W 074°08'4 4.2
2015-Aug-25 14:33N 40°39' W 074°02'0 0.0
2015-Aug-25 13:33N 40°39' W 074°02'3 3.1
2015-Aug-25 12:33N 40°42' W 074°00'7 5.6
2015-Aug-25 11:17N 40°47' W 073°55'1 0.1
2015-Aug-24 20:33N 40°47' W 073°56'9 9.3
2015-Aug-24 19:33N 40°39' W 074°02'0 0.0
2015-Aug-24 18:33N 40°39' W 074°02'0 0.2
2015-Aug-24 17:34N 40°39' W 074°02'1110.5
2015-Aug-24 16:33N 40°48' W 073°54'1 1.1
2015-Aug-24 15:33N 40°48' W 073°53'0 0.0
2015-Aug-24 14:20N 40°48' W 073°53'2 1.2
2015-Aug-24 12:33N 40°48' W 073°50'4 3.4
2015-Aug-24 11:28N 40°47' W 073°55'0 0.0
2015-Aug-24 10:33N 40°47' W 073°55'0 0.0
2015-Aug-24 09:33N 40°47' W 073°55'0 0.0
2015-Aug-24 08:33N 40°47' W 073°55'0 0.0
2015-Aug-24 07:33N 40°47' W 073°55'0 0.0
2015-Aug-24 06:33N 40°47' W 073°55'0 0.0
2015-Aug-24 05:33N 40°47' W 073°55'0 0.0
2015-Aug-24 04:27N 40°47' W 073°55'0 0.0
2015-Aug-24 03:34N 40°47' W 073°55'0 0.0
2015-Aug-24 02:33N 40°47' W 073°55'0 0.0
2015-Aug-24 01:33N 40°47' W 073°55'0 0.0
2015-Aug-24 00:32N 40°47' W 073°55'0 0.0
2015-Aug-23 23:33N 40°47' W 073°55'  
Track history (hours):
 
Tides and Currents Weather Stations Pressure Air Temp Water Temp Dewpoint Dewpoint Depression Visibility Wind Speed Wind Dir Waves Ship Positions

North River

Owner: CITY OF NEW YORK, Brooklyn, NY. More information available from US FCC via Universal Licensing System and Coast Guard Vessel Documentation Center.

Last reported at 2015-Sep-02 23:33 UTC. Time now 2015-Sep-05 07:54 UTC.
Position N 40°47' W 073°53'.

Length 78 m.

Type: Tanker. MMSI: 367074110.

Date/timePositionNaut miles runAvg speedWind from/ knotsBaromVisibWave heightAir tempDewpointWater temp
2015-Sep-02 23:33N 40°47' W 073°53'1 1.0
2015-Sep-02 22:30N 40°48' W 073°53'2 2.0
2015-Sep-02 21:29N 40°47' W 073°55'6 6.6
2015-Sep-02 20:33N 40°43' W 074°02'7 7.2
2015-Sep-02 19:33N 40°50' W 073°58'0 0.0
2015-Sep-02 18:33N 40°50' W 073°58'0 0.3
2015-Sep-02 17:33N 40°50' W 073°58'6 6.1
2015-Sep-02 16:33N 40°44' W 073°58'6 5.8
2015-Sep-02 15:33N 40°48' W 073°53'0 0.0
2015-Sep-02 14:33N 40°48' W 073°53'2 2.1
2015-Sep-02 13:33N 40°48' W 073°50'0 0.0
2015-Sep-02 12:33N 40°48' W 073°50'3 2.7
2015-Sep-02 11:33N 40°47' W 073°54'1 0.1
2015-Sep-01 22:34N 40°48' W 073°55'1111.5
2015-Sep-01 21:33N 40°38' W 074°03'8 7.9
2015-Sep-01 20:34N 40°36' W 073°53'0 0.1
2015-Sep-01 17:34N 40°36' W 073°53'2 2.2
2015-Sep-01 16:33N 40°35' W 073°50'0 0.0
2015-Sep-01 15:33N 40°35' W 073°50'5 4.2
2015-Sep-01 14:28N 40°34' W 073°56'7 7.8
2015-Sep-01 13:33N 40°39' W 074°02'10 9.6
2015-Sep-01 12:33N 40°47' W 073°55'1 1.3
2015-Sep-01 11:33N 40°47' W 073°54'1 0.1
2015-Aug-31 22:27N 40°47' W 073°55'0 0.0
2015-Aug-31 21:27N 40°47' W 073°55'2 2.5
2015-Aug-31 20:33N 40°46' W 073°57'8 7.9
2015-Aug-31 19:33N 40°39' W 074°02'0 0.0
2015-Aug-31 18:33N 40°39' W 074°02'0 0.0
2015-Aug-31 17:33N 40°39' W 074°02'1010.2
2015-Aug-31 16:33N 40°47' W 073°55'2 1.6
2015-Aug-31 15:33N 40°48' W 073°53'0 0.0
2015-Aug-31 14:33N 40°48' W 073°53'2 1.5
2015-Aug-31 13:10N 40°48' W 073°50'0 0.0
2015-Aug-31 12:32N 40°48' W 073°50'3 2.7
2015-Aug-31 11:33N 40°47' W 073°54'  
2015-Aug-27 20:16N 40°47' W 073°53'6 8.9
2015-Aug-27 19:34N 40°42' W 073°59'6 6.1
2015-Aug-27 18:34N 40°42' W 074°07'1 0.7
2015-Aug-27 17:34N 40°43' W 074°07'0 0.0
2015-Aug-27 16:33N 40°43' W 074°07'4 4.3
2015-Aug-27 15:34N 40°39' W 074°09'5 5.1
2015-Aug-27 14:34N 40°39' W 074°02'0 0.0
2015-Aug-27 13:34N 40°39' W 074°02'2 2.4
2015-Aug-27 12:34N 40°41' W 074°01'8 8.4
2015-Aug-27 11:33N 40°47' W 073°54'0 0.0
2015-Aug-27 01:03N 40°47' W 073°54'1 3.0
2015-Aug-27 00:34N 40°47' W 073°55'1211.5
2015-Aug-26 23:34N 40°39' W 074°06'1 1.0
2015-Aug-26 22:33N 40°38' W 074°08'0 0.0
2015-Aug-26 21:33N 40°38' W 074°08'7 7.4
2015-Aug-26 20:33N 40°44' W 074°01'2 0.5
2015-Aug-26 16:33N 40°46' W 074°01'2 0.1
2015-Aug-25 20:33N 40°44' W 073°58'6 6.4
2015-Aug-25 19:33N 40°39' W 074°02'0 0.0
2015-Aug-25 18:33N 40°39' W 074°02'4 4.2
2015-Aug-25 17:34N 40°38' W 074°08'0 0.0
2015-Aug-25 16:33N 40°38' W 074°08'0 0.0
2015-Aug-25 15:33N 40°38' W 074°08'4 4.2
2015-Aug-25 14:33N 40°39' W 074°02'0 0.0
2015-Aug-25 13:33N 40°39' W 074°02'3 3.1
2015-Aug-25 12:33N 40°42' W 074°00'7 5.6
2015-Aug-25 11:17N 40°47' W 073°55'1 0.1
2015-Aug-24 20:33N 40°47' W 073°56'9 9.3
2015-Aug-24 19:33N 40°39' W 074°02'0 0.0
2015-Aug-24 18:33N 40°39' W 074°02'0 0.2
2015-Aug-24 17:34N 40°39' W 074°02'1110.5
2015-Aug-24 16:33N 40°48' W 073°54'1 1.1
2015-Aug-24 15:33N 40°48' W 073°53'0 0.0
2015-Aug-24 14:20N 40°48' W 073°53'2 1.2
2015-Aug-24 12:33N 40°48' W 073°50'4 3.4
2015-Aug-24 11:28N 40°47' W 073°55'0 0.0
2015-Aug-24 10:33N 40°47' W 073°55'0 0.0
2015-Aug-24 09:33N 40°47' W 073°55'0 0.0
2015-Aug-24 08:33N 40°47' W 073°55'0 0.0
2015-Aug-24 07:33N 40°47' W 073°55'0 0.0
2015-Aug-24 06:33N 40°47' W 073°55'0 0.0
2015-Aug-24 05:33N 40°47' W 073°55'0 0.0
2015-Aug-24 04:27N 40°47' W 073°55'0 0.0
2015-Aug-24 03:34N 40°47' W 073°55'0 0.0
2015-Aug-24 02:33N 40°47' W 073°55'0 0.0
2015-Aug-24 01:33N 40°47' W 073°55'0 0.0
2015-Aug-24 00:32N 40°47' W 073°55'0 0.0
2015-Aug-23 23:33N 40°47' W 073°55'  

Dump ship's entire track history